sensor_id;sensor_type;location;lat;lon;timestamp;P1;durP1;ratioP1;P2;durP2;ratioP2
41653;SDS011;68687;52.030;7.110;2023-08-20T00:01:43;12.73;;;7.97;;
41653;SDS011;68687;52.030;7.110;2023-08-20T00:04:08;8.57;;;7.50;;
41653;SDS011;68687;52.030;7.110;2023-08-20T00:06:34;12.85;;;7.82;;
41653;SDS011;68687;52.030;7.110;2023-08-20T00:09:00;14.32;;;9.15;;
41653;SDS011;68687;52.030;7.110;2023-08-20T00:11:25;18.98;;;8.95;;
41653;SDS011;68687;52.030;7.110;2023-08-20T00:13:50;13.13;;;8.65;;
41653;SDS011;68687;52.030;7.110;2023-08-20T00:16:16;17.67;;;9.95;;
41653;SDS011;68687;52.030;7.110;2023-08-20T00:18:41;17.80;;;10.40;;
41653;SDS011;68687;52.030;7.110;2023-08-20T00:21:07;15.57;;;9.30;;
41653;SDS011;68687;52.030;7.110;2023-08-20T00:23:33;14.63;;;8.75;;
41653;SDS011;68687;52.030;7.110;2023-08-20T00:26:00;14.63;;;9.13;;
41653;SDS011;68687;52.030;7.110;2023-08-20T00:28:25;13.75;;;8.82;;
41653;SDS011;68687;52.030;7.110;2023-08-20T00:30:51;17.35;;;9.77;;
41653;SDS011;68687;52.030;7.110;2023-08-20T00:33:16;13.38;;;8.55;;
41653;SDS011;68687;52.030;7.110;2023-08-20T00:35:42;14.00;;;9.15;;
41653;SDS011;68687;52.030;7.110;2023-08-20T00:38:07;14.07;;;8.55;;
41653;SDS011;68687;52.030;7.110;2023-08-20T00:40:32;14.15;;;10.35;;
41653;SDS011;68687;52.030;7.110;2023-08-20T00:42:58;20.05;;;11.45;;
41653;SDS011;68687;52.030;7.110;2023-08-20T00:45:24;13.70;;;9.48;;
41653;SDS011;68687;52.030;7.110;2023-08-20T00:47:50;19.65;;;10.15;;
41653;SDS011;68687;52.030;7.110;2023-08-20T00:50:16;16.08;;;9.32;;
41653;SDS011;68687;52.030;7.110;2023-08-20T00:52:41;23.85;;;10.50;;
41653;SDS011;68687;52.030;7.110;2023-08-20T00:55:08;14.55;;;10.35;;
41653;SDS011;68687;52.030;7.110;2023-08-20T00:57:35;20.30;;;10.95;;
41653;SDS011;68687;52.030;7.110;2023-08-20T01:00:02;16.45;;;10.40;;
41653;SDS011;68687;52.030;7.110;2023-08-20T01:02:32;16.17;;;11.50;;
41653;SDS011;68687;52.030;7.110;2023-08-20T01:04:57;16.00;;;9.95;;
41653;SDS011;68687;52.030;7.110;2023-08-20T01:10:18;21.38;;;10.88;;
41653;SDS011;68687;52.030;7.110;2023-08-20T01:12:50;18.02;;;11.02;;
41653;SDS011;68687;52.030;7.110;2023-08-20T01:15:17;18.90;;;10.93;;
41653;SDS011;68687;52.030;7.110;2023-08-20T01:17:42;22.92;;;11.50;;
41653;SDS011;68687;52.030;7.110;2023-08-20T01:20:08;16.83;;;10.35;;
41653;SDS011;68687;52.030;7.110;2023-08-20T01:28:30;15.75;;;10.88;;
41653;SDS011;68687;52.030;7.110;2023-08-20T01:30:57;14.35;;;9.80;;
41653;SDS011;68687;52.030;7.110;2023-08-20T01:33:23;17.75;;;11.00;;
41653;SDS011;68687;52.030;7.110;2023-08-20T01:35:52;14.77;;;10.85;;
41653;SDS011;68687;52.030;7.110;2023-08-20T01:38:18;20.98;;;10.52;;
41653;SDS011;68687;52.030;7.110;2023-08-20T01:40:43;18.85;;;11.32;;
41653;SDS011;68687;52.030;7.110;2023-08-20T01:43:09;20.08;;;11.02;;
41653;SDS011;68687;52.030;7.110;2023-08-20T01:45:34;16.23;;;10.55;;
41653;SDS011;68687;52.030;7.110;2023-08-20T01:48:00;15.60;;;10.57;;
41653;SDS011;68687;52.030;7.110;2023-08-20T01:50:25;16.40;;;10.30;;
41653;SDS011;68687;52.030;7.110;2023-08-20T01:52:50;22.05;;;10.88;;
41653;SDS011;68687;52.030;7.110;2023-08-20T01:55:15;14.70;;;10.68;;
41653;SDS011;68687;52.030;7.110;2023-08-20T01:57:41;26.13;;;11.35;;
41653;SDS011;68687;52.030;7.110;2023-08-20T02:00:06;23.83;;;11.48;;
41653;SDS011;68687;52.030;7.110;2023-08-20T02:02:32;17.90;;;11.32;;
41653;SDS011;68687;52.030;7.110;2023-08-20T02:04:59;18.52;;;10.60;;
41653;SDS011;68687;52.030;7.110;2023-08-20T02:07:25;17.83;;;10.60;;
41653;SDS011;68687;52.030;7.110;2023-08-20T02:09:50;17.85;;;10.82;;
41653;SDS011;68687;52.030;7.110;2023-08-20T02:12:15;19.23;;;10.00;;
41653;SDS011;68687;52.030;7.110;2023-08-20T02:14:40;18.00;;;10.80;;
41653;SDS011;68687;52.030;7.110;2023-08-20T02:17:06;14.82;;;10.30;;
41653;SDS011;68687;52.030;7.110;2023-08-20T02:19:32;16.95;;;10.43;;
41653;SDS011;68687;52.030;7.110;2023-08-20T02:21:57;19.00;;;11.23;;
41653;SDS011;68687;52.030;7.110;2023-08-20T02:24:23;17.10;;;10.07;;
41653;SDS011;68687;52.030;7.110;2023-08-20T02:26:48;17.50;;;11.75;;
41653;SDS011;68687;52.030;7.110;2023-08-20T02:29:14;17.15;;;12.25;;
41653;SDS011;68687;52.030;7.110;2023-08-20T02:31:39;17.85;;;10.23;;
41653;SDS011;68687;52.030;7.110;2023-08-20T02:34:04;21.10;;;11.30;;
41653;SDS011;68687;52.030;7.110;2023-08-20T02:36:30;18.92;;;11.30;;
41653;SDS011;68687;52.030;7.110;2023-08-20T02:38:55;24.67;;;12.40;;
41653;SDS011;68687;52.030;7.110;2023-08-20T02:41:20;23.52;;;12.23;;
41653;SDS011;68687;52.030;7.110;2023-08-20T02:43:45;24.90;;;13.10;;
41653;SDS011;68687;52.030;7.110;2023-08-20T02:46:11;18.30;;;11.38;;
41653;SDS011;68687;52.030;7.110;2023-08-20T02:48:37;22.35;;;11.38;;
41653;SDS011;68687;52.030;7.110;2023-08-20T02:51:02;22.85;;;11.70;;
41653;SDS011;68687;52.030;7.110;2023-08-20T02:53:27;20.45;;;11.18;;
41653;SDS011;68687;52.030;7.110;2023-08-20T02:55:53;25.25;;;11.43;;
41653;SDS011;68687;52.030;7.110;2023-08-20T02:58:18;20.95;;;11.23;;
41653;SDS011;68687;52.030;7.110;2023-08-20T03:00:43;16.50;;;9.30;;
41653;SDS011;68687;52.030;7.110;2023-08-20T03:03:10;21.35;;;11.27;;
41653;SDS011;68687;52.030;7.110;2023-08-20T03:05:35;19.13;;;11.82;;
41653;SDS011;68687;52.030;7.110;2023-08-20T03:08:01;18.38;;;9.52;;
41653;SDS011;68687;52.030;7.110;2023-08-20T03:10:30;17.67;;;9.38;;
41653;SDS011;68687;52.030;7.110;2023-08-20T03:12:56;13.32;;;9.60;;
41653;SDS011;68687;52.030;7.110;2023-08-20T03:15:22;19.25;;;10.60;;
41653;SDS011;68687;52.030;7.110;2023-08-20T03:17:47;20.77;;;9.88;;
41653;SDS011;68687;52.030;7.110;2023-08-20T03:20:12;13.00;;;9.73;;
41653;SDS011;68687;52.030;7.110;2023-08-20T03:22:38;21.85;;;9.57;;
41653;SDS011;68687;52.030;7.110;2023-08-20T03:25:03;14.20;;;9.45;;
41653;SDS011;68687;52.030;7.110;2023-08-20T03:27:30;15.63;;;9.63;;
41653;SDS011;68687;52.030;7.110;2023-08-20T03:29:55;14.43;;;8.82;;
41653;SDS011;68687;52.030;7.110;2023-08-20T03:32:21;19.35;;;10.68;;
41653;SDS011;68687;52.030;7.110;2023-08-20T03:34:46;19.20;;;8.45;;
41653;SDS011;68687;52.030;7.110;2023-08-20T03:37:11;13.48;;;9.20;;
41653;SDS011;68687;52.030;7.110;2023-08-20T03:39:37;16.35;;;10.77;;
41653;SDS011;68687;52.030;7.110;2023-08-20T03:42:02;20.50;;;12.75;;
41653;SDS011;68687;52.030;7.110;2023-08-20T03:44:28;27.65;;;12.93;;
41653;SDS011;68687;52.030;7.110;2023-08-20T03:46:54;19.90;;;12.57;;
41653;SDS011;68687;52.030;7.110;2023-08-20T03:49:20;20.55;;;10.63;;
41653;SDS011;68687;52.030;7.110;2023-08-20T03:51:45;17.92;;;10.02;;
41653;SDS011;68687;52.030;7.110;2023-08-20T03:54:10;15.25;;;10.68;;
41653;SDS011;68687;52.030;7.110;2023-08-20T03:56:36;14.15;;;9.95;;
41653;SDS011;68687;52.030;7.110;2023-08-20T03:59:01;17.15;;;9.82;;
41653;SDS011;68687;52.030;7.110;2023-08-20T04:01:27;16.63;;;10.77;;
41653;SDS011;68687;52.030;7.110;2023-08-20T04:03:52;14.45;;;10.45;;
41653;SDS011;68687;52.030;7.110;2023-08-20T04:06:18;26.58;;;12.10;;
41653;SDS011;68687;52.030;7.110;2023-08-20T04:08:43;21.10;;;11.68;;
41653;SDS011;68687;52.030;7.110;2023-08-20T04:11:08;21.33;;;10.85;;
41653;SDS011;68687;52.030;7.110;2023-08-20T04:13:34;17.83;;;11.32;;
41653;SDS011;68687;52.030;7.110;2023-08-20T04:15:59;22.80;;;10.50;;
41653;SDS011;68687;52.030;7.110;2023-08-20T04:18:24;16.73;;;10.40;;
41653;SDS011;68687;52.030;7.110;2023-08-20T04:20:50;17.83;;;11.10;;
41653;SDS011;68687;52.030;7.110;2023-08-20T04:23:17;15.80;;;11.25;;
41653;SDS011;68687;52.030;7.110;2023-08-20T04:25:43;20.80;;;11.23;;
41653;SDS011;68687;52.030;7.110;2023-08-20T04:28:09;18.85;;;10.85;;
41653;SDS011;68687;52.030;7.110;2023-08-20T04:30:35;20.10;;;10.05;;
41653;SDS011;68687;52.030;7.110;2023-08-20T04:33:00;24.38;;;11.73;;
41653;SDS011;68687;52.030;7.110;2023-08-20T04:35:26;16.83;;;10.65;;
41653;SDS011;68687;52.030;7.110;2023-08-20T04:37:51;17.45;;;11.23;;
41653;SDS011;68687;52.030;7.110;2023-08-20T04:40:17;16.05;;;10.65;;
41653;SDS011;68687;52.030;7.110;2023-08-20T04:42:42;24.05;;;11.77;;
41653;SDS011;68687;52.030;7.110;2023-08-20T04:45:07;24.83;;;12.27;;
41653;SDS011;68687;52.030;7.110;2023-08-20T04:47:33;18.92;;;10.80;;
41653;SDS011;68687;52.030;7.110;2023-08-20T04:49:59;20.92;;;10.98;;
41653;SDS011;68687;52.030;7.110;2023-08-20T04:52:24;19.70;;;11.95;;
41653;SDS011;68687;52.030;7.110;2023-08-20T04:54:49;21.77;;;12.70;;
41653;SDS011;68687;52.030;7.110;2023-08-20T04:57:15;20.48;;;12.35;;
41653;SDS011;68687;52.030;7.110;2023-08-20T04:59:41;20.45;;;11.90;;
41653;SDS011;68687;52.030;7.110;2023-08-20T05:02:10;19.63;;;11.07;;
41653;SDS011;68687;52.030;7.110;2023-08-20T05:04:35;18.40;;;10.73;;
41653;SDS011;68687;52.030;7.110;2023-08-20T05:07:01;13.77;;;10.13;;
41653;SDS011;68687;52.030;7.110;2023-08-20T05:09:26;23.85;;;12.80;;
41653;SDS011;68687;52.030;7.110;2023-08-20T05:11:51;23.05;;;11.88;;
41653;SDS011;68687;52.030;7.110;2023-08-20T05:14:17;18.42;;;11.23;;
41653;SDS011;68687;52.030;7.110;2023-08-20T05:16:42;18.17;;;11.90;;
41653;SDS011;68687;52.030;7.110;2023-08-20T05:19:07;24.23;;;12.23;;
41653;SDS011;68687;52.030;7.110;2023-08-20T05:21:32;19.02;;;12.05;;
41653;SDS011;68687;52.030;7.110;2023-08-20T05:23:58;22.83;;;12.73;;
41653;SDS011;68687;52.030;7.110;2023-08-20T05:26:23;19.38;;;12.43;;
41653;SDS011;68687;52.030;7.110;2023-08-20T05:28:49;18.10;;;12.38;;
41653;SDS011;68687;52.030;7.110;2023-08-20T05:31:14;20.13;;;10.82;;
41653;SDS011;68687;52.030;7.110;2023-08-20T05:33:39;20.33;;;10.30;;
41653;SDS011;68687;52.030;7.110;2023-08-20T05:36:05;17.45;;;9.60;;
41653;SDS011;68687;52.030;7.110;2023-08-20T05:38:30;22.63;;;12.73;;
41653;SDS011;68687;52.030;7.110;2023-08-20T05:40:55;19.05;;;11.15;;
41653;SDS011;68687;52.030;7.110;2023-08-20T05:43:21;20.70;;;12.73;;
41653;SDS011;68687;52.030;7.110;2023-08-20T05:45:46;21.75;;;11.77;;
41653;SDS011;68687;52.030;7.110;2023-08-20T05:48:11;23.60;;;12.15;;
41653;SDS011;68687;52.030;7.110;2023-08-20T05:50:36;22.50;;;12.00;;
41653;SDS011;68687;52.030;7.110;2023-08-20T05:53:02;18.52;;;11.10;;
41653;SDS011;68687;52.030;7.110;2023-08-20T05:55:27;22.17;;;12.15;;
41653;SDS011;68687;52.030;7.110;2023-08-20T05:57:52;17.02;;;10.73;;
41653;SDS011;68687;52.030;7.110;2023-08-20T06:00:18;17.40;;;11.48;;
41653;SDS011;68687;52.030;7.110;2023-08-20T06:02:43;21.08;;;11.07;;
41653;SDS011;68687;52.030;7.110;2023-08-20T06:05:09;22.52;;;12.70;;
41653;SDS011;68687;52.030;7.110;2023-08-20T06:07:35;19.77;;;12.25;;
41653;SDS011;68687;52.030;7.110;2023-08-20T06:10:00;20.98;;;12.88;;
41653;SDS011;68687;52.030;7.110;2023-08-20T06:12:25;19.98;;;11.63;;
41653;SDS011;68687;52.030;7.110;2023-08-20T06:14:51;18.98;;;11.55;;
41653;SDS011;68687;52.030;7.110;2023-08-20T06:17:16;21.23;;;12.15;;
41653;SDS011;68687;52.030;7.110;2023-08-20T06:19:42;19.25;;;12.20;;
41653;SDS011;68687;52.030;7.110;2023-08-20T06:22:07;20.80;;;11.80;;
41653;SDS011;68687;52.030;7.110;2023-08-20T06:24:32;23.75;;;13.32;;
41653;SDS011;68687;52.030;7.110;2023-08-20T06:26:58;23.73;;;13.25;;
41653;SDS011;68687;52.030;7.110;2023-08-20T06:29:23;21.40;;;12.45;;
41653;SDS011;68687;52.030;7.110;2023-08-20T06:48:29;25.83;;;17.80;;
41653;SDS011;68687;52.030;7.110;2023-08-20T06:50:55;31.70;;;18.15;;
41653;SDS011;68687;52.030;7.110;2023-08-20T06:53:20;25.40;;;18.90;;
41653;SDS011;68687;52.030;7.110;2023-08-20T06:55:45;33.30;;;19.98;;
41653;SDS011;68687;52.030;7.110;2023-08-20T06:58:11;29.42;;;19.95;;
41653;SDS011;68687;52.030;7.110;2023-08-20T07:00:36;30.45;;;20.63;;
41653;SDS011;68687;52.030;7.110;2023-08-20T07:03:02;37.67;;;22.25;;
41653;SDS011;68687;52.030;7.110;2023-08-20T07:05:28;32.15;;;22.13;;
41653;SDS011;68687;52.030;7.110;2023-08-20T07:07:53;30.58;;;21.02;;
41653;SDS011;68687;52.030;7.110;2023-08-20T07:10:19;33.08;;;21.08;;
41653;SDS011;68687;52.030;7.110;2023-08-20T07:12:44;35.40;;;21.65;;
41653;SDS011;68687;52.030;7.110;2023-08-20T07:15:09;35.30;;;23.13;;
41653;SDS011;68687;52.030;7.110;2023-08-20T07:17:35;33.97;;;24.30;;
41653;SDS011;68687;52.030;7.110;2023-08-20T07:20:00;31.92;;;24.08;;
41653;SDS011;68687;52.030;7.110;2023-08-20T07:22:26;43.20;;;25.35;;
41653;SDS011;68687;52.030;7.110;2023-08-20T07:24:51;33.05;;;22.85;;
41653;SDS011;68687;52.030;7.110;2023-08-20T07:27:16;35.28;;;25.13;;
41653;SDS011;68687;52.030;7.110;2023-08-20T07:29:41;36.95;;;24.05;;
41653;SDS011;68687;52.030;7.110;2023-08-20T07:32:07;36.83;;;25.35;;
41653;SDS011;68687;52.030;7.110;2023-08-20T07:34:33;38.90;;;27.42;;
41653;SDS011;68687;52.030;7.110;2023-08-20T07:36:59;39.33;;;26.63;;
41653;SDS011;68687;52.030;7.110;2023-08-20T07:39:24;38.85;;;28.17;;
41653;SDS011;68687;52.030;7.110;2023-08-20T07:41:50;39.13;;;27.27;;
41653;SDS011;68687;52.030;7.110;2023-08-20T07:44:15;38.03;;;26.98;;
41653;SDS011;68687;52.030;7.110;2023-08-20T07:46:40;37.22;;;27.02;;
41653;SDS011;68687;52.030;7.110;2023-08-20T07:49:06;41.05;;;28.30;;
41653;SDS011;68687;52.030;7.110;2023-08-20T07:51:31;42.33;;;27.67;;
41653;SDS011;68687;52.030;7.110;2023-08-20T07:53:56;40.42;;;25.67;;
41653;SDS011;68687;52.030;7.110;2023-08-20T07:56:23;36.75;;;25.52;;
41653;SDS011;68687;52.030;7.110;2023-08-20T07:58:48;38.30;;;27.95;;
41653;SDS011;68687;52.030;7.110;2023-08-20T08:01:14;36.85;;;25.55;;
41653;SDS011;68687;52.030;7.110;2023-08-20T08:03:39;37.33;;;26.92;;
41653;SDS011;68687;52.030;7.110;2023-08-20T08:06:24;37.95;;;26.92;;
41653;SDS011;68687;52.030;7.110;2023-08-20T08:08:49;37.35;;;26.13;;
41653;SDS011;68687;52.030;7.110;2023-08-20T08:11:14;40.17;;;28.00;;
41653;SDS011;68687;52.030;7.110;2023-08-20T08:13:40;37.85;;;28.15;;
41653;SDS011;68687;52.030;7.110;2023-08-20T08:16:06;38.13;;;28.52;;
41653;SDS011;68687;52.030;7.110;2023-08-20T08:18:31;41.35;;;27.60;;
41653;SDS011;68687;52.030;7.110;2023-08-20T08:20:56;35.20;;;26.63;;
41653;SDS011;68687;52.030;7.110;2023-08-20T08:23:22;40.00;;;26.85;;
41653;SDS011;68687;52.030;7.110;2023-08-20T08:25:47;36.85;;;28.60;;
41653;SDS011;68687;52.030;7.110;2023-08-20T08:28:12;36.95;;;26.60;;
41653;SDS011;68687;52.030;7.110;2023-08-20T08:30:38;39.03;;;28.95;;
41653;SDS011;68687;52.030;7.110;2023-08-20T08:33:04;37.83;;;28.85;;
41653;SDS011;68687;52.030;7.110;2023-08-20T08:35:30;37.10;;;26.98;;
41653;SDS011;68687;52.030;7.110;2023-08-20T08:37:55;36.22;;;27.48;;
41653;SDS011;68687;52.030;7.110;2023-08-20T08:40:22;39.65;;;28.92;;
41653;SDS011;68687;52.030;7.110;2023-08-20T08:42:50;35.53;;;27.05;;
41653;SDS011;68687;52.030;7.110;2023-08-20T08:45:17;34.95;;;25.67;;
41653;SDS011;68687;52.030;7.110;2023-08-20T08:47:44;33.47;;;26.92;;
41653;SDS011;68687;52.030;7.110;2023-08-20T08:50:10;33.25;;;25.25;;
41653;SDS011;68687;52.030;7.110;2023-08-20T08:52:36;33.35;;;25.55;;
41653;SDS011;68687;52.030;7.110;2023-08-20T08:55:03;33.72;;;25.83;;
41653;SDS011;68687;52.030;7.110;2023-08-20T08:57:30;36.47;;;25.20;;
41653;SDS011;68687;52.030;7.110;2023-08-20T08:59:56;28.92;;;22.60;;
41653;SDS011;68687;52.030;7.110;2023-08-20T09:02:21;27.50;;;21.77;;
41653;SDS011;68687;52.030;7.110;2023-08-20T09:04:48;30.88;;;21.75;;
41653;SDS011;68687;52.030;7.110;2023-08-20T09:07:14;26.95;;;21.75;;
41653;SDS011;68687;52.030;7.110;2023-08-20T09:09:43;28.48;;;22.38;;
41653;SDS011;68687;52.030;7.110;2023-08-20T09:12:16;27.48;;;21.10;;
41653;SDS011;68687;52.030;7.110;2023-08-20T09:14:47;33.40;;;23.20;;
41653;SDS011;68687;52.030;7.110;2023-08-20T09:17:17;29.83;;;25.37;;
41653;SDS011;68687;52.030;7.110;2023-08-20T09:19:44;31.45;;;24.25;;
41653;SDS011;68687;52.030;7.110;2023-08-20T09:22:14;31.45;;;25.98;;
41653;SDS011;68687;52.030;7.110;2023-08-20T09:24:46;31.42;;;25.45;;
41653;SDS011;68687;52.030;7.110;2023-08-20T09:27:19;25.85;;;21.98;;
41653;SDS011;68687;52.030;7.110;2023-08-20T09:29:45;35.20;;;26.17;;
41653;SDS011;68687;52.030;7.110;2023-08-20T09:32:16;26.67;;;20.27;;
41653;SDS011;68687;52.030;7.110;2023-08-20T09:34:44;27.08;;;22.67;;
41653;SDS011;68687;52.030;7.110;2023-08-20T09:37:10;27.50;;;22.38;;
41653;SDS011;68687;52.030;7.110;2023-08-20T09:39:37;24.10;;;19.52;;
41653;SDS011;68687;52.030;7.110;2023-08-20T09:42:02;25.60;;;19.35;;
41653;SDS011;68687;52.030;7.110;2023-08-20T09:44:32;19.20;;;15.55;;
41653;SDS011;68687;52.030;7.110;2023-08-20T09:47:00;18.83;;;15.00;;
41653;SDS011;68687;52.030;7.110;2023-08-20T09:49:29;21.98;;;15.15;;
41653;SDS011;68687;52.030;7.110;2023-08-20T09:51:55;18.60;;;15.05;;
41653;SDS011;68687;52.030;7.110;2023-08-20T09:57:09;19.83;;;16.08;;
41653;SDS011;68687;52.030;7.110;2023-08-20T09:59:39;22.67;;;17.63;;
41653;SDS011;68687;52.030;7.110;2023-08-20T10:02:06;17.80;;;14.23;;
41653;SDS011;68687;52.030;7.110;2023-08-20T10:04:36;17.20;;;15.27;;
41653;SDS011;68687;52.030;7.110;2023-08-20T10:07:01;19.88;;;15.30;;
41653;SDS011;68687;52.030;7.110;2023-08-20T10:09:28;15.43;;;13.77;;
41653;SDS011;68687;52.030;7.110;2023-08-20T10:11:53;16.23;;;12.35;;
41653;SDS011;68687;52.030;7.110;2023-08-20T10:14:19;20.15;;;14.88;;
41653;SDS011;68687;52.030;7.110;2023-08-20T10:16:44;15.48;;;13.95;;
41653;SDS011;68687;52.030;7.110;2023-08-20T10:19:10;18.50;;;14.23;;
41653;SDS011;68687;52.030;7.110;2023-08-20T10:21:36;13.98;;;12.05;;
41653;SDS011;68687;52.030;7.110;2023-08-20T10:24:08;14.27;;;11.55;;
41653;SDS011;68687;52.030;7.110;2023-08-20T10:26:34;14.68;;;13.18;;
41653;SDS011;68687;52.030;7.110;2023-08-20T10:32:03;19.23;;;13.13;;
41653;SDS011;68687;52.030;7.110;2023-08-20T10:34:39;14.45;;;12.98;;
41653;SDS011;68687;52.030;7.110;2023-08-20T10:37:14;13.75;;;10.82;;
41653;SDS011;68687;52.030;7.110;2023-08-20T10:39:40;13.65;;;11.30;;
41653;SDS011;68687;52.030;7.110;2023-08-20T10:45:18;12.93;;;11.05;;
41653;SDS011;68687;52.030;7.110;2023-08-20T10:50:22;9.68;;;8.88;;
41653;SDS011;68687;52.030;7.110;2023-08-20T10:52:48;12.55;;;9.10;;
41653;SDS011;68687;52.030;7.110;2023-08-20T10:55:15;12.30;;;9.10;;
41653;SDS011;68687;52.030;7.110;2023-08-20T10:57:46;10.23;;;8.98;;
41653;SDS011;68687;52.030;7.110;2023-08-20T11:00:20;10.73;;;9.23;;
41653;SDS011;68687;52.030;7.110;2023-08-20T11:02:45;8.70;;;7.78;;
41653;SDS011;68687;52.030;7.110;2023-08-20T11:05:21;10.73;;;8.95;;
41653;SDS011;68687;52.030;7.110;2023-08-20T11:07:47;16.00;;;9.15;;
41653;SDS011;68687;52.030;7.110;2023-08-20T11:10:14;10.65;;;8.30;;
41653;SDS011;68687;52.030;7.110;2023-08-20T11:12:43;12.10;;;9.18;;
41653;SDS011;68687;52.030;7.110;2023-08-20T11:15:10;10.82;;;7.78;;
41653;SDS011;68687;52.030;7.110;2023-08-20T11:17:46;10.05;;;7.78;;
41653;SDS011;68687;52.030;7.110;2023-08-20T11:20:15;13.75;;;7.57;;
41653;SDS011;68687;52.030;7.110;2023-08-20T11:22:41;7.60;;;6.90;;
41653;SDS011;68687;52.030;7.110;2023-08-20T11:25:10;13.07;;;7.45;;
41653;SDS011;68687;52.030;7.110;2023-08-20T11:27:41;7.03;;;6.32;;
41653;SDS011;68687;52.030;7.110;2023-08-20T11:30:07;8.55;;;7.35;;
41653;SDS011;68687;52.030;7.110;2023-08-20T11:32:34;16.60;;;8.15;;
41653;SDS011;68687;52.030;7.110;2023-08-20T11:35:00;10.35;;;7.28;;
41653;SDS011;68687;52.030;7.110;2023-08-20T11:37:26;9.77;;;6.53;;
41653;SDS011;68687;52.030;7.110;2023-08-20T11:39:52;7.85;;;6.28;;
41653;SDS011;68687;52.030;7.110;2023-08-20T11:42:17;9.00;;;6.03;;
41653;SDS011;68687;52.030;7.110;2023-08-20T11:44:43;7.18;;;6.03;;
41653;SDS011;68687;52.030;7.110;2023-08-20T11:47:14;8.15;;;7.18;;
41653;SDS011;68687;52.030;7.110;2023-08-20T11:49:40;11.25;;;6.75;;
41653;SDS011;68687;52.030;7.110;2023-08-20T11:52:05;9.43;;;5.20;;
41653;SDS011;68687;52.030;7.110;2023-08-20T11:54:31;8.13;;;5.47;;
41653;SDS011;68687;52.030;7.110;2023-08-20T11:57:01;9.48;;;5.63;;
41653;SDS011;68687;52.030;7.110;2023-08-20T11:59:28;9.60;;;4.93;;
41653;SDS011;68687;52.030;7.110;2023-08-20T12:01:57;7.68;;;5.15;;
41653;SDS011;68687;52.030;7.110;2023-08-20T12:04:25;8.57;;;5.03;;
41653;SDS011;68687;52.030;7.110;2023-08-20T12:07:04;8.45;;;4.70;;
41653;SDS011;68687;52.030;7.110;2023-08-20T12:09:31;7.85;;;4.40;;
41653;SDS011;68687;52.030;7.110;2023-08-20T12:11:58;6.97;;;4.20;;
41653;SDS011;68687;52.030;7.110;2023-08-20T12:14:23;7.10;;;4.32;;
41653;SDS011;68687;52.030;7.110;2023-08-20T12:16:49;9.23;;;4.25;;
41653;SDS011;68687;52.030;7.110;2023-08-20T12:19:16;8.88;;;3.90;;
41653;SDS011;68687;52.030;7.110;2023-08-20T12:21:41;10.35;;;3.90;;
41653;SDS011;68687;52.030;7.110;2023-08-20T12:24:08;5.38;;;3.80;;
41653;SDS011;68687;52.030;7.110;2023-08-20T12:26:34;5.28;;;4.10;;
41653;SDS011;68687;52.030;7.110;2023-08-20T12:28:59;12.13;;;4.50;;
41653;SDS011;68687;52.030;7.110;2023-08-20T12:31:24;9.43;;;3.90;;
41653;SDS011;68687;52.030;7.110;2023-08-20T12:33:50;10.00;;;3.88;;
41653;SDS011;68687;52.030;7.110;2023-08-20T12:36:18;5.75;;;3.90;;
41653;SDS011;68687;52.030;7.110;2023-08-20T12:38:43;5.07;;;4.15;;
41653;SDS011;68687;52.030;7.110;2023-08-20T12:41:09;7.38;;;4.18;;
41653;SDS011;68687;52.030;7.110;2023-08-20T12:43:34;8.68;;;4.38;;
41653;SDS011;68687;52.030;7.110;2023-08-20T12:45:59;6.38;;;4.13;;
41653;SDS011;68687;52.030;7.110;2023-08-20T12:48:25;6.38;;;3.58;;
41653;SDS011;68687;52.030;7.110;2023-08-20T12:50:50;5.43;;;3.45;;
41653;SDS011;68687;52.030;7.110;2023-08-20T12:53:15;7.85;;;4.25;;
41653;SDS011;68687;52.030;7.110;2023-08-20T12:55:41;8.43;;;3.90;;
41653;SDS011;68687;52.030;7.110;2023-08-20T12:58:06;6.47;;;3.78;;
41653;SDS011;68687;52.030;7.110;2023-08-20T13:00:32;5.07;;;3.80;;
41653;SDS011;68687;52.030;7.110;2023-08-20T13:02:58;5.82;;;3.60;;
41653;SDS011;68687;52.030;7.110;2023-08-20T13:05:24;5.68;;;3.97;;
41653;SDS011;68687;52.030;7.110;2023-08-20T13:07:55;8.68;;;3.47;;
41653;SDS011;68687;52.030;7.110;2023-08-20T13:10:21;8.43;;;3.75;;
41653;SDS011;68687;52.030;7.110;2023-08-20T13:12:48;7.13;;;3.13;;
41653;SDS011;68687;52.030;7.110;2023-08-20T13:15:16;4.93;;;3.30;;
41653;SDS011;68687;52.030;7.110;2023-08-20T13:17:42;7.70;;;3.65;;
41653;SDS011;68687;52.030;7.110;2023-08-20T13:20:08;6.00;;;3.10;;
41653;SDS011;68687;52.030;7.110;2023-08-20T13:22:33;6.30;;;3.13;;
41653;SDS011;68687;52.030;7.110;2023-08-20T13:25:05;5.88;;;3.42;;
41653;SDS011;68687;52.030;7.110;2023-08-20T13:27:30;5.03;;;3.90;;
41653;SDS011;68687;52.030;7.110;2023-08-20T13:29:56;5.40;;;3.10;;
41653;SDS011;68687;52.030;7.110;2023-08-20T13:32:22;4.72;;;3.38;;
41653;SDS011;68687;52.030;7.110;2023-08-20T13:34:47;4.60;;;2.65;;
41653;SDS011;68687;52.030;7.110;2023-08-20T13:37:14;7.70;;;3.10;;
41653;SDS011;68687;52.030;7.110;2023-08-20T13:39:39;5.93;;;3.40;;
41653;SDS011;68687;52.030;7.110;2023-08-20T13:42:05;9.07;;;3.33;;
41653;SDS011;68687;52.030;7.110;2023-08-20T13:44:30;3.85;;;2.70;;
41653;SDS011;68687;52.030;7.110;2023-08-20T13:46:58;5.45;;;3.13;;
41653;SDS011;68687;52.030;7.110;2023-08-20T13:49:24;3.72;;;2.83;;
41653;SDS011;68687;52.030;7.110;2023-08-20T13:51:50;3.70;;;2.80;;
41653;SDS011;68687;52.030;7.110;2023-08-20T13:54:15;3.42;;;2.95;;
41653;SDS011;68687;52.030;7.110;2023-08-20T13:56:40;4.72;;;3.10;;
41653;SDS011;68687;52.030;7.110;2023-08-20T13:59:06;9.38;;;3.22;;
41653;SDS011;68687;52.030;7.110;2023-08-20T14:01:33;4.85;;;3.08;;
41653;SDS011;68687;52.030;7.110;2023-08-20T14:03:59;4.57;;;3.00;;
41653;SDS011;68687;52.030;7.110;2023-08-20T14:06:25;5.65;;;3.60;;
41653;SDS011;68687;52.030;7.110;2023-08-20T14:08:50;5.47;;;2.40;;
41653;SDS011;68687;52.030;7.110;2023-08-20T14:11:15;7.15;;;3.03;;
41653;SDS011;68687;52.030;7.110;2023-08-20T14:13:41;3.72;;;2.50;;
41653;SDS011;68687;52.030;7.110;2023-08-20T14:16:07;3.95;;;2.70;;
41653;SDS011;68687;52.030;7.110;2023-08-20T14:18:33;4.93;;;2.83;;
41653;SDS011;68687;52.030;7.110;2023-08-20T14:20:58;5.40;;;2.63;;
41653;SDS011;68687;52.030;7.110;2023-08-20T14:23:23;4.93;;;2.47;;
41653;SDS011;68687;52.030;7.110;2023-08-20T14:25:49;5.90;;;2.45;;
41653;SDS011;68687;52.030;7.110;2023-08-20T14:28:14;4.18;;;2.60;;
41653;SDS011;68687;52.030;7.110;2023-08-20T14:30:39;4.80;;;2.50;;
41653;SDS011;68687;52.030;7.110;2023-08-20T14:33:05;6.07;;;2.78;;
41653;SDS011;68687;52.030;7.110;2023-08-20T14:35:31;4.60;;;2.72;;
41653;SDS011;68687;52.030;7.110;2023-08-20T14:37:57;6.07;;;2.88;;
41653;SDS011;68687;52.030;7.110;2023-08-20T14:40:22;6.00;;;2.88;;
41653;SDS011;68687;52.030;7.110;2023-08-20T14:42:48;2.70;;;2.50;;
41653;SDS011;68687;52.030;7.110;2023-08-20T14:45:13;5.53;;;3.17;;
41653;SDS011;68687;52.030;7.110;2023-08-20T14:47:38;3.60;;;2.42;;
41653;SDS011;68687;52.030;7.110;2023-08-20T14:50:05;6.03;;;2.80;;
41653;SDS011;68687;52.030;7.110;2023-08-20T14:52:31;4.78;;;2.70;;
41653;SDS011;68687;52.030;7.110;2023-08-20T14:54:56;3.00;;;2.58;;
41653;SDS011;68687;52.030;7.110;2023-08-20T14:57:21;5.13;;;2.50;;
41653;SDS011;68687;52.030;7.110;2023-08-20T14:59:54;5.88;;;2.70;;
41653;SDS011;68687;52.030;7.110;2023-08-20T15:02:28;5.65;;;3.13;;